sensor_id;sensor_type;location;lat;lon;timestamp;pressure;altitude;pressure_sealevel;temperature;humidity
44140;BME280;29803;51.048;4.686;2023-02-10T00:01:59;103598.28;;;1.87;100.00
44140;BME280;29803;51.048;4.686;2023-02-10T00:04:30;103588.84;;;1.77;100.00
44140;BME280;29803;51.048;4.686;2023-02-10T00:07:00;103598.72;;;1.70;100.00
44140;BME280;29803;51.048;4.686;2023-02-10T00:09:31;103597.97;;;1.65;100.00
44140;BME280;29803;51.048;4.686;2023-02-10T00:12:01;103601.66;;;1.60;100.00
44140;BME280;29803;51.048;4.686;2023-02-10T00:14:32;103603.63;;;1.53;100.00
44140;BME280;29803;51.048;4.686;2023-02-10T00:17:03;103606.38;;;1.48;100.00
44140;BME280;29803;51.048;4.686;2023-02-10T00:19:34;103600.34;;;1.43;100.00
44140;BME280;29803;51.048;4.686;2023-02-10T00:22:04;103603.22;;;1.34;100.00
44140;BME280;29803;51.048;4.686;2023-02-10T00:24:35;103601.66;;;1.25;100.00
44140;BME280;29803;51.048;4.686;2023-02-10T00:27:05;103598.28;;;1.20;100.00
44140;BME280;29803;51.048;4.686;2023-02-10T00:29:36;103600.91;;;1.20;100.00
44140;BME280;29803;51.048;4.686;2023-02-10T00:32:06;103602.69;;;1.21;100.00
44140;BME280;29803;51.048;4.686;2023-02-10T00:34:37;103609.69;;;1.22;100.00
44140;BME280;29803;51.048;4.686;2023-02-10T00:37:07;103608.84;;;1.20;100.00
44140;BME280;29803;51.048;4.686;2023-02-10T00:39:37;103606.19;;;1.20;100.00
44140;BME280;29803;51.048;4.686;2023-02-10T00:42:08;103610.50;;;1.24;100.00
44140;BME280;29803;51.048;4.686;2023-02-10T00:44:38;103610.16;;;1.38;100.00
44140;BME280;29803;51.048;4.686;2023-02-10T00:47:09;103616.03;;;1.51;100.00
44140;BME280;29803;51.048;4.686;2023-02-10T00:49:39;103614.13;;;1.56;100.00
44140;BME280;29803;51.048;4.686;2023-02-10T00:52:10;103611.47;;;1.56;100.00
44140;BME280;29803;51.048;4.686;2023-02-10T00:54:40;103607.88;;;1.59;100.00
44140;BME280;29803;51.048;4.686;2023-02-10T00:57:11;103605.97;;;1.64;100.00
44140;BME280;29803;51.048;4.686;2023-02-10T00:59:41;103613.00;;;1.65;100.00
44140;BME280;29803;51.048;4.686;2023-02-10T01:02:12;103611.19;;;1.67;100.00
44140;BME280;29803;51.048;4.686;2023-02-10T01:04:42;103612.88;;;1.69;100.00
44140;BME280;29803;51.048;4.686;2023-02-10T01:07:13;103611.09;;;1.70;100.00
44140;BME280;29803;51.048;4.686;2023-02-10T01:09:43;103612.97;;;1.66;100.00
44140;BME280;29803;51.048;4.686;2023-02-10T01:12:14;103620.28;;;1.57;100.00
44140;BME280;29803;51.048;4.686;2023-02-10T01:14:44;103616.25;;;1.42;100.00
44140;BME280;29803;51.048;4.686;2023-02-10T01:17:15;103617.41;;;1.32;100.00
44140;BME280;29803;51.048;4.686;2023-02-10T01:19:45;103622.81;;;1.27;100.00
44140;BME280;29803;51.048;4.686;2023-02-10T01:22:18;103630.75;;;1.25;100.00
44140;BME280;29803;51.048;4.686;2023-02-10T01:24:48;103632.53;;;1.26;100.00
44140;BME280;29803;51.048;4.686;2023-02-10T01:27:18;103636.94;;;1.26;100.00
44140;BME280;29803;51.048;4.686;2023-02-10T01:29:49;103637.00;;;1.23;100.00
44140;BME280;29803;51.048;4.686;2023-02-10T01:32:19;103642.25;;;1.26;100.00
44140;BME280;29803;51.048;4.686;2023-02-10T01:34:50;103644.03;;;1.24;100.00
44140;BME280;29803;51.048;4.686;2023-02-10T01:37:21;103646.72;;;1.22;100.00
44140;BME280;29803;51.048;4.686;2023-02-10T01:39:51;103641.44;;;1.22;100.00
44140;BME280;29803;51.048;4.686;2023-02-10T01:42:22;103646.78;;;1.19;100.00
44140;BME280;29803;51.048;4.686;2023-02-10T01:47:23;103652.16;;;1.16;100.00
44140;BME280;29803;51.048;4.686;2023-02-10T01:49:55;103658.59;;;1.04;100.00
44140;BME280;29803;51.048;4.686;2023-02-10T01:52:26;103662.41;;;0.93;100.00
44140;BME280;29803;51.048;4.686;2023-02-10T01:55:04;103659.91;;;0.85;100.00
44140;BME280;29803;51.048;4.686;2023-02-10T01:57:37;103659.13;;;0.82;100.00
44140;BME280;29803;51.048;4.686;2023-02-10T02:00:09;103668.75;;;0.86;100.00
44140;BME280;29803;51.048;4.686;2023-02-10T02:02:42;103662.56;;;0.87;100.00
44140;BME280;29803;51.048;4.686;2023-02-10T02:05:34;103666.94;;;0.88;100.00
44140;BME280;29803;51.048;4.686;2023-02-10T02:11:30;103668.50;;;0.96;100.00
44140;BME280;29803;51.048;4.686;2023-02-10T02:17:29;103675.22;;;1.10;100.00
44140;BME280;29803;51.048;4.686;2023-02-10T02:32:25;103631.75;;;1.55;100.00
44140;BME280;29803;51.048;4.686;2023-02-10T02:34:59;103645.88;;;1.56;100.00
44140;BME280;29803;51.048;4.686;2023-02-10T02:37:36;103625.66;;;1.53;100.00
44140;BME280;29803;51.048;4.686;2023-02-10T02:40:08;103634.50;;;1.52;100.00
44140;BME280;29803;51.048;4.686;2023-02-10T02:42:39;103637.03;;;1.57;100.00
44140;BME280;29803;51.048;4.686;2023-02-10T02:58:48;103641.91;;;2.05;100.00
44140;BME280;29803;51.048;4.686;2023-02-10T03:01:28;103647.94;;;2.10;100.00
44140;BME280;29803;51.048;4.686;2023-02-10T03:04:00;103653.16;;;2.13;100.00
44140;BME280;29803;51.048;4.686;2023-02-10T03:06:31;103651.31;;;2.15;100.00
44140;BME280;29803;51.048;4.686;2023-02-10T03:09:02;103644.22;;;2.17;100.00
44140;BME280;29803;51.048;4.686;2023-02-10T03:11:33;103650.31;;;2.19;100.00
44140;BME280;29803;51.048;4.686;2023-02-10T03:14:03;103654.69;;;2.20;100.00
44140;BME280;29803;51.048;4.686;2023-02-10T03:16:34;103651.19;;;2.20;100.00
44140;BME280;29803;51.048;4.686;2023-02-10T03:19:05;103653.75;;;2.23;100.00
44140;BME280;29803;51.048;4.686;2023-02-10T03:21:35;103658.81;;;2.30;100.00
44140;BME280;29803;51.048;4.686;2023-02-10T03:24:06;103658.69;;;2.35;100.00
44140;BME280;29803;51.048;4.686;2023-02-10T03:26:39;103659.47;;;2.39;100.00
44140;BME280;29803;51.048;4.686;2023-02-10T03:29:11;103663.66;;;2.47;100.00
44140;BME280;29803;51.048;4.686;2023-02-10T03:31:42;103656.63;;;2.46;100.00
44140;BME280;29803;51.048;4.686;2023-02-10T03:34:13;103669.88;;;2.46;100.00
44140;BME280;29803;51.048;4.686;2023-02-10T03:36:44;103654.84;;;2.45;100.00
44140;BME280;29803;51.048;4.686;2023-02-10T03:39:14;103655.06;;;2.39;100.00
44140;BME280;29803;51.048;4.686;2023-02-10T03:41:45;103658.81;;;2.30;100.00
44140;BME280;29803;51.048;4.686;2023-02-10T03:44:15;103667.66;;;2.31;100.00
44140;BME280;29803;51.048;4.686;2023-02-10T03:46:45;103665.78;;;2.34;100.00
44140;BME280;29803;51.048;4.686;2023-02-10T03:49:16;103671.13;;;2.33;100.00
44140;BME280;29803;51.048;4.686;2023-02-10T03:51:46;103674.69;;;2.32;100.00
44140;BME280;29803;51.048;4.686;2023-02-10T03:54:17;103671.19;;;2.30;100.00
44140;BME280;29803;51.048;4.686;2023-02-10T03:56:47;103672.19;;;2.26;100.00
44140;BME280;29803;51.048;4.686;2023-02-10T03:59:18;103673.25;;;2.20;100.00
44140;BME280;29803;51.048;4.686;2023-02-10T04:01:48;103669.91;;;2.14;100.00
44140;BME280;29803;51.048;4.686;2023-02-10T04:04:19;103678.09;;;2.06;100.00
44140;BME280;29803;51.048;4.686;2023-02-10T04:06:49;103678.28;;;1.98;100.00
44140;BME280;29803;51.048;4.686;2023-02-10T04:09:20;103675.06;;;1.87;100.00
44140;BME280;29803;51.048;4.686;2023-02-10T04:11:51;103684.16;;;1.75;100.00
44140;BME280;29803;51.048;4.686;2023-02-10T04:14:21;103688.06;;;1.62;100.00
44140;BME280;29803;51.048;4.686;2023-02-10T04:16:52;103683.06;;;1.50;100.00
44140;BME280;29803;51.048;4.686;2023-02-10T04:19:22;103685.19;;;1.36;100.00
44140;BME280;29803;51.048;4.686;2023-02-10T04:21:52;103691.72;;;1.21;100.00
44140;BME280;29803;51.048;4.686;2023-02-10T04:24:23;103687.66;;;1.06;100.00
44140;BME280;29803;51.048;4.686;2023-02-10T04:26:53;103683.56;;;0.93;100.00
44140;BME280;29803;51.048;4.686;2023-02-10T04:29:24;103697.06;;;0.79;100.00
44140;BME280;29803;51.048;4.686;2023-02-10T04:31:54;103700.84;;;0.67;100.00
44140;BME280;29803;51.048;4.686;2023-02-10T04:34:25;103690.56;;;0.54;100.00
44140;BME280;29803;51.048;4.686;2023-02-10T04:36:55;103690.78;;;0.43;100.00
44140;BME280;29803;51.048;4.686;2023-02-10T04:39:26;103687.41;;;0.35;100.00
44140;BME280;29803;51.048;4.686;2023-02-10T04:41:57;103676.13;;;0.28;100.00
44140;BME280;29803;51.048;4.686;2023-02-10T04:44:27;103685.94;;;0.21;100.00
44140;BME280;29803;51.048;4.686;2023-02-10T04:46:58;103693.13;;;0.13;100.00
44140;BME280;29803;51.048;4.686;2023-02-10T04:49:28;103696.72;;;0.09;100.00
44140;BME280;29803;51.048;4.686;2023-02-10T04:51:59;103698.56;;;0.06;100.00
44140;BME280;29803;51.048;4.686;2023-02-10T04:54:29;103691.56;;;0.03;100.00
44140;BME280;29803;51.048;4.686;2023-02-10T04:57:00;103687.22;;;0.01;100.00
44140;BME280;29803;51.048;4.686;2023-02-10T04:59:30;103687.28;;;-0.03;100.00
44140;BME280;29803;51.048;4.686;2023-02-10T05:02:01;103697.00;;;-0.06;100.00
44140;BME280;29803;51.048;4.686;2023-02-10T05:04:33;103695.31;;;-0.10;100.00
44140;BME280;29803;51.048;4.686;2023-02-10T05:07:04;103697.09;;;-0.11;100.00
44140;BME280;29803;51.048;4.686;2023-02-10T05:09:35;103693.53;;;-0.08;100.00
44140;BME280;29803;51.048;4.686;2023-02-10T05:12:05;103680.47;;;-0.16;100.00
44140;BME280;29803;51.048;4.686;2023-02-10T05:14:36;103686.78;;;-0.23;100.00
44140;BME280;29803;51.048;4.686;2023-02-10T05:17:06;103683.38;;;-0.31;100.00
44140;BME280;29803;51.048;4.686;2023-02-10T05:19:37;103693.22;;;-0.39;100.00
44140;BME280;29803;51.048;4.686;2023-02-10T05:22:07;103689.78;;;-0.46;100.00
44140;BME280;29803;51.048;4.686;2023-02-10T05:24:38;103693.44;;;-0.53;100.00
44140;BME280;29803;51.048;4.686;2023-02-10T05:27:08;103693.53;;;-0.59;100.00
44140;BME280;29803;51.048;4.686;2023-02-10T05:29:39;103689.25;;;-0.66;100.00
44140;BME280;29803;51.048;4.686;2023-02-10T05:32:09;103690.28;;;-0.75;100.00
44140;BME280;29803;51.048;4.686;2023-02-10T05:34:40;103682.44;;;-0.81;100.00
44140;BME280;29803;51.048;4.686;2023-02-10T05:37:10;103691.31;;;-0.87;100.00
44140;BME280;29803;51.048;4.686;2023-02-10T05:39:40;103682.69;;;-0.95;100.00
44140;BME280;29803;51.048;4.686;2023-02-10T05:42:11;103683.63;;;-0.99;100.00
44140;BME280;29803;51.048;4.686;2023-02-10T05:44:41;103688.06;;;-1.04;100.00
44140;BME280;29803;51.048;4.686;2023-02-10T05:47:13;103689.91;;;-1.09;100.00
44140;BME280;29803;51.048;4.686;2023-02-10T05:49:43;103686.41;;;-1.11;100.00
44140;BME280;29803;51.048;4.686;2023-02-10T05:52:14;103690.88;;;-1.15;100.00
44140;BME280;29803;51.048;4.686;2023-02-10T05:54:44;103681.28;;;-1.20;100.00
44140;BME280;29803;51.048;4.686;2023-02-10T05:57:15;103698.88;;;-1.22;100.00
44140;BME280;29803;51.048;4.686;2023-02-10T05:59:45;103698.03;;;-1.26;100.00
44140;BME280;29803;51.048;4.686;2023-02-10T06:02:16;103696.34;;;-1.30;100.00
44140;BME280;29803;51.048;4.686;2023-02-10T06:04:46;103697.28;;;-1.36;100.00
44140;BME280;29803;51.048;4.686;2023-02-10T06:07:17;103697.34;;;-1.42;100.00
44140;BME280;29803;51.048;4.686;2023-02-10T06:09:47;103693.09;;;-1.50;100.00
44140;BME280;29803;51.048;4.686;2023-02-10T06:12:18;103694.91;;;-1.57;100.00
44140;BME280;29803;51.048;4.686;2023-02-10T06:14:49;103697.59;;;-1.60;100.00
44140;BME280;29803;51.048;4.686;2023-02-10T06:17:20;103699.38;;;-1.62;100.00
44140;BME280;29803;51.048;4.686;2023-02-10T06:19:50;103695.03;;;-1.65;100.00
44140;BME280;29803;51.048;4.686;2023-02-10T06:22:21;103698.41;;;-1.57;100.00
44140;BME280;29803;51.048;4.686;2023-02-10T06:24:51;103700.09;;;-1.51;100.00
44140;BME280;29803;51.048;4.686;2023-02-10T06:27:21;103692.19;;;-1.51;100.00
44140;BME280;29803;51.048;4.686;2023-02-10T06:29:52;103693.97;;;-1.50;100.00
44140;BME280;29803;51.048;4.686;2023-02-10T06:32:22;103698.41;;;-1.55;100.00
44140;BME280;29803;51.048;4.686;2023-02-10T06:34:53;103702.88;;;-1.60;100.00
44140;BME280;29803;51.048;4.686;2023-02-10T06:37:23;103699.44;;;-1.68;100.00
44140;BME280;29803;51.048;4.686;2023-02-10T06:39:54;103700.41;;;-1.75;100.00
44140;BME280;29803;51.048;4.686;2023-02-10T06:42:25;103701.34;;;-1.79;100.00
44140;BME280;29803;51.048;4.686;2023-02-10T06:44:55;103706.63;;;-1.83;100.00
44140;BME280;29803;51.048;4.686;2023-02-10T06:47:26;103704.91;;;-1.87;100.00
44140;BME280;29803;51.048;4.686;2023-02-10T06:49:57;103704.03;;;-1.87;100.00
44140;BME280;29803;51.048;4.686;2023-02-10T06:52:27;103704.06;;;-1.90;100.00
44140;BME280;29803;51.048;4.686;2023-02-10T06:54:58;103702.38;;;-1.96;100.00
44140;BME280;29803;51.048;4.686;2023-02-10T06:57:28;103706.81;;;-1.99;100.00
44140;BME280;29803;51.048;4.686;2023-02-10T06:59:58;103706.81;;;-2.02;100.00
44140;BME280;29803;51.048;4.686;2023-02-10T07:02:29;103713.00;;;-2.06;100.00
44140;BME280;29803;51.048;4.686;2023-02-10T07:04:59;103710.38;;;-2.08;100.00
44140;BME280;29803;51.048;4.686;2023-02-10T07:07:30;103712.19;;;-2.10;100.00
44140;BME280;29803;51.048;4.686;2023-02-10T07:10:00;103713.94;;;-2.12;100.00
44140;BME280;29803;51.048;4.686;2023-02-10T07:12:31;103712.19;;;-2.10;100.00
44140;BME280;29803;51.048;4.686;2023-02-10T07:15:01;103720.00;;;-2.04;100.00
44140;BME280;29803;51.048;4.686;2023-02-10T07:17:32;103717.31;;;-1.99;100.00
44140;BME280;29803;51.048;4.686;2023-02-10T07:20:04;103711.97;;;-1.92;100.00
44140;BME280;29803;51.048;4.686;2023-02-10T07:22:34;103719.81;;;-1.86;100.00
44140;BME280;29803;51.048;4.686;2023-02-10T07:25:05;103725.88;;;-1.79;100.00
44140;BME280;29803;51.048;4.686;2023-02-10T07:27:36;103718.81;;;-1.74;100.00
44140;BME280;29803;51.048;4.686;2023-02-10T07:30:06;103733.63;;;-1.64;100.00
44140;BME280;29803;51.048;4.686;2023-02-10T07:32:37;103732.66;;;-1.55;100.00
44140;BME280;29803;51.048;4.686;2023-02-10T07:35:08;103727.31;;;-1.52;100.00
44140;BME280;29803;51.048;4.686;2023-02-10T07:37:39;103709.75;;;-1.51;100.00
44140;BME280;29803;51.048;4.686;2023-02-10T07:40:10;103722.94;;;-1.50;100.00
44140;BME280;29803;51.048;4.686;2023-02-10T07:42:41;103722.81;;;-1.42;100.00
44140;BME280;29803;51.048;4.686;2023-02-10T07:45:11;103733.09;;;-1.19;100.00
44140;BME280;29803;51.048;4.686;2023-02-10T07:47:42;103737.41;;;-1.15;100.00
44140;BME280;29803;51.048;4.686;2023-02-10T07:50:12;103732.06;;;-1.11;100.00
44140;BME280;29803;51.048;4.686;2023-02-10T07:52:43;103730.16;;;-0.98;100.00
44140;BME280;29803;51.048;4.686;2023-02-10T07:55:14;103734.34;;;-0.83;100.00
44140;BME280;29803;51.048;4.686;2023-02-10T07:57:44;103745.44;;;-0.63;100.00
44140;BME280;29803;51.048;4.686;2023-02-10T08:00:15;103746.72;;;-0.33;100.00
44140;BME280;29803;51.048;4.686;2023-02-10T08:02:45;103750.50;;;0.04;100.00
44140;BME280;29803;51.048;4.686;2023-02-10T08:05:16;103753.84;;;0.13;100.00
44140;BME280;29803;51.048;4.686;2023-02-10T08:07:47;103763.50;;;0.14;100.00
44140;BME280;29803;51.048;4.686;2023-02-10T08:10:17;103768.88;;;0.11;100.00
44140;BME280;29803;51.048;4.686;2023-02-10T08:12:48;103772.19;;;0.22;100.00
44140;BME280;29803;51.048;4.686;2023-02-10T08:15:18;103766.97;;;0.18;100.00
44140;BME280;29803;51.048;4.686;2023-02-10T08:17:51;103762.72;;;0.11;100.00
44140;BME280;29803;51.048;4.686;2023-02-10T08:20:21;103755.94;;;-0.04;100.00
44140;BME280;29803;51.048;4.686;2023-02-10T08:22:54;103751.72;;;-0.16;100.00
44140;BME280;29803;51.048;4.686;2023-02-10T08:25:25;103760.31;;;-0.03;100.00
44140;BME280;29803;51.048;4.686;2023-02-10T08:27:56;103755.50;;;0.20;100.00
44140;BME280;29803;51.048;4.686;2023-02-10T08:30:26;103763.63;;;0.55;100.00
44140;BME280;29803;51.048;4.686;2023-02-10T08:32:57;103759.16;;;1.00;100.00
44140;BME280;29803;51.048;4.686;2023-02-10T08:35:27;103767.88;;;1.44;100.00
44140;BME280;29803;51.048;4.686;2023-02-10T08:37:58;103758.06;;;1.85;100.00
44140;BME280;29803;51.048;4.686;2023-02-10T08:40:28;103747.63;;;2.13;100.00
44140;BME280;29803;51.048;4.686;2023-02-10T08:42:59;103754.66;;;2.46;100.00
44140;BME280;29803;51.048;4.686;2023-02-10T08:45:29;103760.81;;;2.78;100.00
44140;BME280;29803;51.048;4.686;2023-02-10T08:48:00;103754.66;;;3.07;100.00
44140;BME280;29803;51.048;4.686;2023-02-10T08:50:31;103757.44;;;3.32;100.00
44140;BME280;29803;51.048;4.686;2023-02-10T08:53:01;103748.00;;;3.50;100.00
44140;BME280;29803;51.048;4.686;2023-02-10T08:55:32;103752.06;;;3.61;100.00
44140;BME280;29803;51.048;4.686;2023-02-10T08:58:02;103757.50;;;3.83;100.00
44140;BME280;29803;51.048;4.686;2023-02-10T09:00:33;103752.91;;;3.88;100.00
44140;BME280;29803;51.048;4.686;2023-02-10T09:03:04;103747.78;;;4.09;100.00
44140;BME280;29803;51.048;4.686;2023-02-10T09:05:35;103750.13;;;4.43;100.00
44140;BME280;29803;51.048;4.686;2023-02-10T09:08:08;103751.00;;;4.67;100.00
44140;BME280;29803;51.048;4.686;2023-02-10T09:10:39;103759.72;;;4.71;100.00
44140;BME280;29803;51.048;4.686;2023-02-10T09:13:10;103753.03;;;4.84;100.00
44140;BME280;29803;51.048;4.686;2023-02-10T09:15:41;103763.19;;;5.19;100.00
44140;BME280;29803;51.048;4.686;2023-02-10T09:18:12;103761.13;;;5.26;100.00
44140;BME280;29803;51.048;4.686;2023-02-10T09:20:43;103758.31;;;5.53;100.00
44140;BME280;29803;51.048;4.686;2023-02-10T09:23:13;103753.31;;;5.22;100.00
44140;BME280;29803;51.048;4.686;2023-02-10T09:25:52;103746.91;;;5.27;100.00
44140;BME280;29803;51.048;4.686;2023-02-10T09:28:23;103747.97;;;5.23;100.00
44140;BME280;29803;51.048;4.686;2023-02-10T09:30:54;103743.75;;;5.17;100.00
44140;BME280;29803;51.048;4.686;2023-02-10T09:33:24;103749.44;;;4.85;100.00
44140;BME280;29803;51.048;4.686;2023-02-10T09:35:55;103754.47;;;4.69;100.00
44140;BME280;29803;51.048;4.686;2023-02-10T09:38:25;103753.31;;;4.53;100.00
44140;BME280;29803;51.048;4.686;2023-02-10T09:54:54;103761.59;;;5.37;100.00
44140;BME280;29803;51.048;4.686;2023-02-10T09:57:47;103767.41;;;5.69;100.00
44140;BME280;29803;51.048;4.686;2023-02-10T10:00:40;103759.34;;;5.92;100.00
44140;BME280;29803;51.048;4.686;2023-02-10T10:03:16;103758.53;;;6.31;100.00
44140;BME280;29803;51.048;4.686;2023-02-10T10:05:50;103756.47;;;6.77;100.00
44140;BME280;29803;51.048;4.686;2023-02-10T10:11:48;103763.28;;;6.84;100.00
44140;BME280;29803;51.048;4.686;2023-02-10T10:14:21;103766.94;;;7.00;100.00
44140;BME280;29803;51.048;4.686;2023-02-10T10:17:04;103764.84;;;6.69;100.00
44140;BME280;29803;51.048;4.686;2023-02-10T10:22:50;103771.25;;;6.65;100.00
44140;BME280;29803;51.048;4.686;2023-02-10T10:25:55;103772.88;;;6.88;100.00
44140;BME280;29803;51.048;4.686;2023-02-10T10:28:48;103783.31;;;7.12;100.00
44140;BME280;29803;51.048;4.686;2023-02-10T10:31:26;103790.47;;;7.30;100.00
44140;BME280;29803;51.048;4.686;2023-02-10T10:34:08;103778.88;;;6.93;100.00
44140;BME280;29803;51.048;4.686;2023-02-10T10:36:57;103775.16;;;6.96;100.00
44140;BME280;29803;51.048;4.686;2023-02-10T10:39:48;103784.75;;;6.81;100.00
44140;BME280;29803;51.048;4.686;2023-02-10T10:42:25;103790.38;;;6.75;100.00
44140;BME280;29803;51.048;4.686;2023-02-10T10:45:02;103784.63;;;6.84;100.00
44140;BME280;29803;51.048;4.686;2023-02-10T10:47:42;103779.16;;;6.67;100.00
44140;BME280;29803;51.048;4.686;2023-02-10T10:50:17;103784.38;;;6.70;100.00
44140;BME280;29803;51.048;4.686;2023-02-10T10:52:51;103783.63;;;6.66;100.00
44140;BME280;29803;51.048;4.686;2023-02-10T10:55:26;103783.81;;;6.82;100.00
44140;BME280;29803;51.048;4.686;2023-02-10T10:58:00;103789.53;;;7.12;100.00
44140;BME280;29803;51.048;4.686;2023-02-10T11:00:31;103784.41;;;7.08;100.00
44140;BME280;29803;51.048;4.686;2023-02-10T11:03:05;103776.84;;;6.98;100.00
44140;BME280;29803;51.048;4.686;2023-02-10T11:05:36;103770.69;;;6.96;100.00
44140;BME280;29803;51.048;4.686;2023-02-10T11:08:22;103763.72;;;6.94;100.00
44140;BME280;29803;51.048;4.686;2023-02-10T11:10:55;103759.59;;;7.06;100.00
44140;BME280;29803;51.048;4.686;2023-02-10T11:13:29;103763.00;;;7.09;100.00
44140;BME280;29803;51.048;4.686;2023-02-10T11:18:33;103745.22;;;6.70;100.00
44140;BME280;29803;51.048;4.686;2023-02-10T11:21:07;103744.97;;;6.56;100.00
44140;BME280;29803;51.048;4.686;2023-02-10T11:23:51;103751.16;;;6.96;100.00
44140;BME280;29803;51.048;4.686;2023-02-10T11:26:25;103749.25;;;7.17;100.00
44140;BME280;29803;51.048;4.686;2023-02-10T11:28:56;103738.66;;;7.15;100.00
44140;BME280;29803;51.048;4.686;2023-02-10T11:31:30;103737.66;;;7.18;100.00
44140;BME280;29803;51.048;4.686;2023-02-10T11:34:16;103744.22;;;7.30;100.00
44140;BME280;29803;51.048;4.686;2023-02-10T11:36:49;103746.50;;;7.37;100.00
44140;BME280;29803;51.048;4.686;2023-02-10T11:39:34;103751.06;;;7.16;100.00
44140;BME280;29803;51.048;4.686;2023-02-10T11:42:09;103747.03;;;7.08;100.00
44140;BME280;29803;51.048;4.686;2023-02-10T11:44:40;103742.94;;;7.00;100.00
44140;BME280;29803;51.048;4.686;2023-02-10T11:47:15;103745.22;;;7.27;100.00
44140;BME280;29803;51.048;4.686;2023-02-10T11:49:48;103749.09;;;7.39;100.00
44140;BME280;29803;51.048;4.686;2023-02-10T11:52:21;103744.13;;;7.31;100.00
44140;BME280;29803;51.048;4.686;2023-02-10T11:54:53;103749.25;;;7.17;100.00
44140;BME280;29803;51.048;4.686;2023-02-10T11:57:48;103742.50;;;7.10;100.00
44140;BME280;29803;51.048;4.686;2023-02-10T12:00:47;103750.94;;;7.19;100.00
44140;BME280;29803;51.048;4.686;2023-02-10T12:12:15;103750.72;;;7.05;100.00
44140;BME280;29803;51.048;4.686;2023-02-10T12:15:12;103745.31;;;6.88;100.00
44140;BME280;29803;51.048;4.686;2023-02-10T12:17:56;103734.03;;;6.62;100.00
44140;BME280;29803;51.048;4.686;2023-02-10T12:20:55;103740.00;;;6.67;100.00
44140;BME280;29803;51.048;4.686;2023-02-10T12:29:07;103732.34;;;6.41;100.00
44140;BME280;29803;51.048;4.686;2023-02-10T12:51:54;103719.03;;;6.97;100.00
44140;BME280;29803;51.048;4.686;2023-02-10T12:57:29;103712.91;;;6.77;100.00
44140;BME280;29803;51.048;4.686;2023-02-10T13:00:21;103704.69;;;6.81;100.00
44140;BME280;29803;51.048;4.686;2023-02-10T13:03:13;103708.31;;;6.80;100.00
44140;BME280;29803;51.048;4.686;2023-02-10T13:05:49;103694.16;;;6.59;100.00
44140;BME280;29803;51.048;4.686;2023-02-10T13:08:27;103700.38;;;6.79;100.00
44140;BME280;29803;51.048;4.686;2023-02-10T13:11:07;103698.06;;;6.90;100.00
44140;BME280;29803;51.048;4.686;2023-02-10T13:13:40;103703.63;;;7.04;100.00
44140;BME280;29803;51.048;4.686;2023-02-10T13:16:17;103705.03;;;7.11;100.00
44140;BME280;29803;51.048;4.686;2023-02-10T13:21:47;103708.75;;;7.09;100.00
44140;BME280;29803;51.048;4.686;2023-02-10T13:24:25;103701.50;;;7.11;100.00
44140;BME280;29803;51.048;4.686;2023-02-10T13:27:08;103690.31;;;7.03;100.00
44140;BME280;29803;51.048;4.686;2023-02-10T13:29:54;103694.56;;;7.07;100.00
44140;BME280;29803;51.048;4.686;2023-02-10T13:32:48;103694.53;;;7.08;100.00
44140;BME280;29803;51.048;4.686;2023-02-10T13:35:23;103693.19;;;7.17;100.00
44140;BME280;29803;51.048;4.686;2023-02-10T13:37:56;103695.31;;;7.10;100.00
44140;BME280;29803;51.048;4.686;2023-02-10T13:40:33;103690.63;;;6.96;100.00
44140;BME280;29803;51.048;4.686;2023-02-10T13:43:33;103686.09;;;6.98;100.00
44140;BME280;29803;51.048;4.686;2023-02-10T13:46:04;103681.63;;;6.80;100.00
44140;BME280;29803;51.048;4.686;2023-02-10T13:48:37;103682.50;;;6.81;100.00
44140;BME280;29803;51.048;4.686;2023-02-10T13:51:08;103688.91;;;6.77;100.00
44140;BME280;29803;51.048;4.686;2023-02-10T13:53:40;103681.28;;;6.69;100.00
44140;BME280;29803;51.048;4.686;2023-02-10T13:56:32;103676.44;;;6.58;100.00
44140;BME280;29803;51.048;4.686;2023-02-10T13:59:05;103667.97;;;6.67;100.00
44140;BME280;29803;51.048;4.686;2023-02-10T14:02:02;103676.50;;;6.75;100.00
44140;BME280;29803;51.048;4.686;2023-02-10T14:04:50;103668.41;;;6.77;100.00
44140;BME280;29803;51.048;4.686;2023-02-10T14:07:36;103675.00;;;6.70;100.00
44140;BME280;29803;51.048;4.686;2023-02-10T14:10:28;103679.09;;;6.77;100.00
44140;BME280;29803;51.048;4.686;2023-02-10T14:13:03;103674.06;;;6.71;100.00
44140;BME280;29803;51.048;4.686;2023-02-10T14:15:36;103675.97;;;6.67;100.00
44140;BME280;29803;51.048;4.686;2023-02-10T14:18:26;103676.22;;;6.63;100.00
44140;BME280;29803;51.048;4.686;2023-02-10T14:21:02;103676.03;;;6.47;100.00
44140;BME280;29803;51.048;4.686;2023-02-10T14:23:33;103678.47;;;6.53;100.00
44140;BME280;29803;51.048;4.686;2023-02-10T14:26:07;103670.94;;;6.61;100.00
44140;BME280;29803;51.048;4.686;2023-02-10T14:28:48;103666.41;;;6.63;100.00
44140;BME280;29803;51.048;4.686;2023-02-10T14:31:26;103668.56;;;6.55;100.00
44140;BME280;29803;51.048;4.686;2023-02-10T14:34:01;103675.28;;;6.64;100.00
44140;BME280;29803;51.048;4.686;2023-02-10T14:36:32;103670.66;;;6.67;100.00
44140;BME280;29803;51.048;4.686;2023-02-10T14:39:03;103663.75;;;6.63;100.00
44140;BME280;29803;51.048;4.686;2023-02-10T14:41:35;103662.72;;;6.66;100.00
44140;BME280;29803;51.048;4.686;2023-02-10T14:46:56;103665.69;;;6.60;100.00
44140;BME280;29803;51.048;4.686;2023-02-10T14:49:28;103654.28;;;6.56;100.00
44140;BME280;29803;51.048;4.686;2023-02-10T14:52:03;103657.34;;;6.48;100.00
44140;BME280;29803;51.048;4.686;2023-02-10T14:54:38;103655.53;;;6.49;100.00
44140;BME280;29803;51.048;4.686;2023-02-10T14:57:12;103661.00;;;6.46;100.00
44140;BME280;29803;51.048;4.686;2023-02-10T14:59:43;103661.81;;;6.48;100.00
44140;BME280;29803;51.048;4.686;2023-02-10T15:02:30;103671.53;;;6.49;100.00